Time;durP1;ratioP1;P1;durP2;ratioP2;P2;SDS_P1;SDS_P2;PMS_P1;PMS_P2;Temp;Humidity;BMP_temperature;BMP_pressure;BME280_temperature;BME280_humidity;BME280_pressure;Samples;Min_cycle;Max_cycle;Signal;HPM_P1;HPM_P2
2021/07/11 00:01:57;;;;;;;0.17;0.17;;;15.20;99.90;;;;;;5072308;28;20029;-85
2021/07/11 00:04:23;;;;;;;0.10;0.10;;;15.10;99.90;;;;;;5060609;28;20045;-85
2021/07/11 00:06:49;;;;;;;0.00;0.00;;;15.20;99.90;;;;;;5053892;28;20108;-85
2021/07/11 00:09:15;;;;;;;0.30;0.30;;;15.20;99.90;;;;;;5051591;28;20041;-85
2021/07/11 00:11:41;;;;;;;0.37;0.37;;;15.30;99.90;;;;;;5059609;28;20041;-85
2021/07/11 00:14:07;;;;;;;0.10;0.10;;;15.20;99.90;;;;;;5061560;28;20029;-85
2021/07/11 00:16:33;;;;;;;0.40;0.40;;;15.10;99.90;;;;;;5063587;28;20271;-85
2021/07/11 00:18:59;;;;;;;0.43;0.43;;;14.90;99.90;;;;;;5065848;28;20102;-85
2021/07/11 00:21:26;;;;;;;0.00;0.00;;;14.80;99.90;;;;;;5051497;28;20032;-85
2021/07/11 00:23:52;;;;;;;0.10;0.10;;;14.70;99.90;;;;;;5061477;28;20029;-85
2021/07/11 00:26:18;;;;;;;0.40;0.40;;;14.80;99.90;;;;;;5065758;28;20017;-85
2021/07/11 00:28:45;;;;;;;0.40;0.40;;;14.90;99.90;;;;;;5050170;28;20036;-85
2021/07/11 00:31:12;;;;;;;0.32;0.32;;;15.00;99.90;;;;;;5065231;28;20040;-85
2021/07/11 00:33:38;;;;;;;0.10;0.10;;;14.90;99.90;;;;;;5063121;28;20037;-85
2021/07/11 00:36:04;;;;;;;0.10;0.10;;;15.00;99.90;;;;;;5065021;28;20578;-85
2021/07/11 00:38:30;;;;;;;0.00;0.00;;;15.00;99.90;;;;;;5066750;28;20090;-86
2021/07/11 00:40:56;;;;;;;0.20;0.20;;;15.00;99.90;;;;;;5064283;28;20526;-86
2021/07/11 00:43:21;;;;;;;0.20;0.20;;;15.00;99.90;;;;;;5067407;28;20068;-86
2021/07/11 00:45:47;;;;;;;0.20;0.20;;;15.10;99.90;;;;;;5066526;28;20137;-86
2021/07/11 00:48:13;;;;;;;0.10;0.10;;;15.20;99.90;;;;;;5065910;28;20036;-86
2021/07/11 00:50:39;;;;;;;0.10;0.10;;;15.30;99.90;;;;;;5052527;28;20498;-86
2021/07/11 00:53:09;;;;;;;0.17;0.17;;;15.30;99.90;;;;;;5066581;28;20033;-85
2021/07/11 00:55:36;;;;;;;0.10;0.10;;;15.40;99.90;;;;;;5062871;28;20508;-86
2021/07/11 00:58:03;;;;;;;0.20;0.20;;;15.50;99.90;;;;;;5049429;28;20029;-85
2021/07/11 01:00:30;;;;;;;0.30;0.30;;;15.60;99.90;;;;;;5056581;28;20716;-85
2021/07/11 01:03:16;;;;;;;0.10;0.10;;;15.70;99.90;;;;;;5058361;28;20498;-85
2021/07/11 01:05:43;;;;;;;0.05;0.05;;;15.70;99.90;;;;;;5050954;28;20029;-85
2021/07/11 01:08:14;;;;;;;0.20;0.20;;;15.70;99.90;;;;;;5063567;28;20028;-85
2021/07/11 01:11:01;;;;;;;0.35;0.17;;;15.60;99.90;;;;;;5053038;28;20057;-85
2021/07/11 01:13:29;;;;;;;0.05;0.05;;;15.40;99.90;;;;;;5050347;28;20031;-85
2021/07/11 01:15:59;;;;;;;0.38;0.20;;;15.10;99.90;;;;;;5050560;28;20075;-85
2021/07/11 01:18:26;;;;;;;0.40;0.32;;;14.90;99.90;;;;;;5059554;28;20112;-85
2021/07/11 01:21:00;;;;;;;1.45;0.68;;;14.70;99.90;;;;;;5050607;28;20103;-85
2021/07/11 01:23:58;;;;;;;0.17;0.17;;;14.60;99.90;;;;;;5058018;28;20064;-85
2021/07/11 01:26:26;;;;;;;0.47;0.40;;;14.60;99.90;;;;;;5054257;28;20075;-86
2021/07/11 01:28:53;;;;;;;0.10;0.10;;;14.50;99.90;;;;;;5055225;28;20062;-85
2021/07/11 01:31:21;;;;;;;0.20;0.20;;;14.50;99.90;;;;;;5064768;28;20024;-84
2021/07/11 01:33:49;;;;;;;0.47;0.20;;;14.50;99.90;;;;;;5059020;28;20025;-85
2021/07/11 01:36:18;;;;;;;0.30;0.30;;;14.50;99.90;;;;;;5067291;28;20032;-86
2021/07/11 01:38:47;;;;;;;0.45;0.45;;;14.70;99.90;;;;;;5057066;28;20025;-85
2021/07/11 01:41:14;;;;;;;0.10;0.10;;;14.80;99.90;;;;;;5055610;28;20597;-85
2021/07/11 01:43:42;;;;;;;0.85;0.70;;;14.90;99.90;;;;;;5050936;28;20052;-85
2021/07/11 01:46:08;;;;;;;0.28;0.28;;;15.00;99.90;;;;;;5056856;28;20805;-85
2021/07/11 01:48:36;;;;;;;0.25;0.17;;;15.20;99.90;;;;;;5069079;28;20117;-85
2021/07/11 01:51:03;;;;;;;0.10;0.10;;;15.30;99.90;;;;;;5060093;28;20241;-85
2021/07/11 01:53:40;;;;;;;0.20;0.20;;;15.40;99.90;;;;;;5058694;28;20028;-85
2021/07/11 01:56:08;;;;;;;0.32;0.30;;;15.40;99.90;;;;;;5051841;28;20032;-85
2021/07/11 01:58:34;;;;;;;0.10;0.10;;;15.40;99.90;;;;;;5049881;28;20021;-85
2021/07/11 02:01:03;;;;;;;0.10;0.10;;;15.40;99.90;;;;;;5053290;28;20029;-85
2021/07/11 02:03:29;;;;;;;0.38;0.30;;;15.40;99.90;;;;;;5056848;28;20108;-85
2021/07/11 02:05:55;;;;;;;0.10;0.10;;;15.40;99.90;;;;;;5066775;28;20123;-85
2021/07/11 02:08:22;;;;;;;0.27;0.27;;;15.40;99.90;;;;;;5053825;28;20039;-85
2021/07/11 02:10:49;;;;;;;0.10;0.10;;;15.40;99.90;;;;;;5051536;28;20516;-85
2021/07/11 02:13:44;;;;;;;0.10;0.10;;;15.30;99.90;;;;;;5066142;28;20029;-85
2021/07/11 02:16:44;;;;;;;0.57;0.45;;;15.30;99.90;;;;;;5061925;28;20544;-86
2021/07/11 02:19:10;;;;;;;0.50;0.22;;;15.20;99.90;;;;;;5050270;28;20548;-85
2021/07/11 02:21:39;;;;;;;0.20;0.20;;;15.10;99.90;;;;;;5064175;28;20033;-85
2021/07/11 02:24:05;;;;;;;0.20;0.20;;;15.00;99.90;;;;;;5058389;28;20128;-85
2021/07/11 02:26:32;;;;;;;0.10;0.10;;;15.00;99.90;;;;;;5049318;28;20395;-85
2021/07/11 02:28:58;;;;;;;0.20;0.20;;;15.00;99.90;;;;;;5051693;28;20111;-85
2021/07/11 02:31:29;;;;;;;0.00;0.00;;;14.90;99.90;;;;;;5030248;28;20028;-86
2021/07/11 02:33:55;;;;;;;0.20;0.20;;;14.80;99.90;;;;;;5050169;28;20116;-85
2021/07/11 02:36:25;;;;;;;0.22;0.20;;;14.70;99.90;;;;;;5059538;28;20033;-86
2021/07/11 02:39:06;;;;;;;0.10;0.10;;;14.50;99.90;;;;;;5035049;28;20028;-86
2021/07/11 02:41:34;;;;;;;0.85;0.35;;;14.50;99.90;;;;;;5044196;28;20071;-86
2021/07/11 02:44:03;;;;;;;0.10;0.10;;;14.50;99.90;;;;;;5055627;28;20080;-85
2021/07/11 02:46:34;;;;;;;0.00;0.00;;;14.50;99.90;;;;;;5053485;28;20066;-85
2021/07/11 02:49:03;;;;;;;1.98;0.47;;;14.60;99.90;;;;;;5042644;28;20036;-85
2021/07/11 02:51:34;;;;;;;0.30;0.30;;;14.90;99.90;;;;;;5048744;28;20028;-85
2021/07/11 02:54:00;;;;;;;0.25;0.20;;;14.90;99.90;;;;;;5058960;28;20714;-85
2021/07/11 02:56:27;;;;;;;0.53;0.53;;;14.70;99.90;;;;;;5056989;28;20056;-85
2021/07/11 02:58:58;;;;;;;0.45;0.45;;;14.50;99.90;;;;;;5067318;28;20033;-85
2021/07/11 03:01:25;;;;;;;0.10;0.10;;;14.40;99.90;;;;;;5056275;28;20534;-85
2021/07/11 03:03:53;;;;;;;0.03;0.03;;;14.40;99.90;;;;;;5048947;28;20021;-85
2021/07/11 03:06:19;;;;;;;0.10;0.10;;;14.40;99.90;;;;;;5056788;28;20043;-85
2021/07/11 03:08:45;;;;;;;0.13;0.13;;;14.50;99.90;;;;;;5066777;28;20028;-85
2021/07/11 03:11:12;;;;;;;0.10;0.10;;;14.60;99.90;;;;;;5057321;28;20036;-85
2021/07/11 03:13:40;;;;;;;1.08;0.30;;;14.40;99.90;;;;;;5052510;28;20025;-85
2021/07/11 03:16:07;;;;;;;0.10;0.10;;;14.30;99.90;;;;;;5054216;28;20021;-85
2021/07/11 03:18:37;;;;;;;0.03;0.03;;;14.20;99.90;;;;;;5066756;28;20555;-85
2021/07/11 03:21:06;;;;;;;0.40;0.40;;;14.20;99.90;;;;;;5056328;28;20036;-85
2021/07/11 03:23:34;;;;;;;0.10;0.10;;;14.10;99.90;;;;;;5053842;28;20113;-84
2021/07/11 03:26:00;;;;;;;0.30;0.25;;;14.00;99.90;;;;;;5060810;28;20581;-85
2021/07/11 03:28:30;;;;;;;0.00;0.00;;;13.90;99.90;;;;;;5055637;28;20429;-85
2021/07/11 03:30:56;;;;;;;0.20;0.20;;;13.90;99.90;;;;;;5049766;28;20041;-84
2021/07/11 03:33:24;;;;;;;;;;;13.90;99.90;;;;;;5056618;28;20032;-85
2021/07/11 03:35:59;;;;;;;0.10;0.10;;;13.80;99.90;;;;;;5059096;28;19917;-85
2021/07/11 03:38:39;;;;;;;0.13;0.13;;;13.70;99.90;;;;;;5058110;28;20061;-85
2021/07/11 03:41:07;;;;;;;0.20;0.20;;;13.60;99.90;;;;;;5059599;28;20020;-85
2021/07/11 03:43:36;;;;;;;0.30;0.30;;;13.60;99.90;;;;;;5060238;28;20824;-84
2021/07/11 03:46:06;;;;;;;0.20;0.20;;;13.60;99.90;;;;;;5066665;28;20035;-84
2021/07/11 03:48:43;;;;;;;0.28;0.28;;;13.60;99.90;;;;;;5068755;28;20106;-83
2021/07/11 03:51:11;;;;;;;0.52;0.50;;;13.50;99.90;;;;;;5069048;28;20035;-84
2021/07/11 03:53:38;;;;;;;0.20;0.20;;;13.60;99.90;;;;;;5055387;28;20025;-85
2021/07/11 03:56:05;;;;;;;0.10;0.10;;;13.40;99.90;;;;;;5056086;28;20021;-84
2021/07/11 03:58:41;;;;;;;0.20;0.20;;;13.40;99.90;;;;;;5050479;28;20028;-85
2021/07/11 04:01:08;;;;;;;0.20;0.20;;;13.40;99.90;;;;;;5054712;28;20070;-84
2021/07/11 04:03:38;;;;;;;0.10;0.10;;;13.40;99.90;;;;;;5056934;28;20082;-84
2021/07/11 04:06:08;;;;;;;0.20;0.20;;;13.40;99.90;;;;;;5058442;28;20025;-85
2021/07/11 04:08:35;;;;;;;0.20;0.20;;;13.40;99.90;;;;;;5057107;28;20094;-84
2021/07/11 04:11:01;;;;;;;2.05;0.50;;;13.40;99.90;;;;;;5057267;28;20024;-85
2021/07/11 04:13:27;;;;;;;0.20;0.20;;;13.40;99.90;;;;;;5061103;28;20037;-85
2021/07/11 04:15:59;;;;;;;0.40;0.40;;;13.40;99.90;;;;;;5057639;28;20029;-85
2021/07/11 04:18:26;;;;;;;0.20;0.20;;;13.50;99.90;;;;;;5061158;28;20025;-85
2021/07/11 04:20:55;;;;;;;0.30;0.30;;;13.70;99.90;;;;;;5061507;28;20031;-85
2021/07/11 04:23:28;;;;;;;0.10;0.10;;;13.60;99.90;;;;;;5057464;28;20091;-85
2021/07/11 04:25:55;;;;;;;0.25;0.25;;;13.50;99.90;;;;;;5062165;28;20029;-85
2021/07/11 04:28:23;;;;;;;0.10;0.10;;;13.50;99.90;;;;;;5051570;28;20029;-84
2021/07/11 04:30:50;;;;;;;0.20;0.20;;;13.60;99.90;;;;;;5052253;28;20028;-83
2021/07/11 04:33:17;;;;;;;0.45;0.45;;;13.80;99.90;;;;;;5055094;28;20036;-83
2021/07/11 04:35:43;;;;;;;0.20;0.20;;;14.60;99.90;;;;;;5066448;28;20024;-85
2021/07/11 04:38:08;;;;;;;0.53;0.50;;;15.40;99.90;;;;;;5062304;28;20036;-85
2021/07/11 04:40:34;;;;;;;0.17;0.17;;;16.00;99.90;;;;;;5059652;28;20595;-84
2021/07/11 04:43:00;;;;;;;0.20;0.20;;;16.10;99.90;;;;;;5070606;28;20060;-84
2021/07/11 04:45:27;;;;;;;0.10;0.10;;;16.50;99.90;;;;;;5062601;28;20139;-85
2021/07/11 04:47:53;;;;;;;0.40;0.40;;;16.60;99.90;;;;;;5055303;28;20127;-85
2021/07/11 04:50:19;;;;;;;0.20;0.20;;;16.60;99.90;;;;;;5057922;28;20028;-85
2021/07/11 04:52:45;;;;;;;0.00;0.00;;;16.90;99.90;;;;;;5058705;28;20024;-85
2021/07/11 04:55:12;;;;;;;0.33;0.33;;;16.90;99.90;;;;;;5059228;28;20474;-84
2021/07/11 04:57:39;;;;;;;0.00;0.00;;;16.90;99.90;;;;;;5055005;28;20522;-84
2021/07/11 05:00:08;;;;;;;0.73;0.60;;;16.90;99.90;;;;;;5062171;28;20013;-84
2021/07/11 05:02:34;;;;;;;0.10;0.10;;;16.70;99.90;;;;;;5060335;28;20145;-85
2021/07/11 05:05:01;;;;;;;0.00;0.00;;;16.90;99.90;;;;;;5060306;28;20464;-85
2021/07/11 05:07:26;;;;;;;;;;;17.20;99.90;;;;;;5054449;28;20033;-85
2021/07/11 05:09:52;;;;;;;0.10;0.05;;;17.10;99.90;;;;;;5064094;28;19940;-84
2021/07/11 05:12:18;;;;;;;0.20;0.20;;;17.30;99.90;;;;;;5065408;28;20039;-84
2021/07/11 05:14:44;;;;;;;0.03;0.03;;;17.30;99.90;;;;;;5056864;28;20024;-85
2021/07/11 05:17:10;;;;;;;0.17;0.17;;;17.30;99.90;;;;;;5060818;28;20041;-85
2021/07/11 05:19:36;;;;;;;0.43;0.43;;;17.50;99.90;;;;;;5065232;28;20713;-85
2021/07/11 05:22:03;;;;;;;0.65;0.40;;;17.60;99.90;;;;;;5063851;28;20012;-85
2021/07/11 05:24:30;;;;;;;0.03;0.03;;;18.00;99.90;;;;;;5058563;28;20079;-85
2021/07/11 05:26:55;;;;;;;0.08;0.08;;;18.30;99.90;;;;;;5056348;28;20083;-85
2021/07/11 05:29:21;;;;;;;0.00;0.00;;;17.20;99.90;;;;;;5056959;28;20036;-84
2021/07/11 05:31:47;;;;;;;0.10;0.10;;;17.60;99.90;;;;;;5061185;28;20055;-85
2021/07/11 05:34:13;;;;;;;0.20;0.20;;;18.10;99.90;;;;;;5057893;28;20110;-85
2021/07/11 05:36:39;;;;;;;0.37;0.37;;;18.40;99.90;;;;;;5057409;28;20494;-85
2021/07/11 05:39:05;;;;;;;1.27;0.70;;;18.40;99.90;;;;;;5064758;28;20263;-85
2021/07/11 05:41:32;;;;;;;0.10;0.10;;;19.10;99.90;;;;;;5053011;28;20063;-84
2021/07/11 05:43:59;;;;;;;0.00;0.00;;;19.10;99.90;;;;;;5050028;28;20052;-84
2021/07/11 05:46:26;;;;;;;0.10;0.10;;;19.50;99.90;;;;;;5053734;28;20731;-85
2021/07/11 05:48:51;;;;;;;0.00;0.00;;;20.30;99.90;;;;;;5049714;28;20045;-85
2021/07/11 05:51:17;;;;;;;0.08;0.08;;;19.50;99.90;;;;;;5052932;28;20068;-85
2021/07/11 05:53:43;;;;;;;0.00;0.00;;;19.40;99.90;;;;;;5048610;28;20082;-85
2021/07/11 05:56:09;;;;;;;0.10;0.10;;;19.70;99.90;;;;;;5064628;28;20366;-85
2021/07/11 05:58:35;;;;;;;2.03;0.87;;;19.30;99.90;;;;;;5068810;28;20024;-85
2021/07/11 06:01:00;;;;;;;0.10;0.10;;;19.70;99.90;;;;;;5052895;28;20614;-85
2021/07/11 06:03:26;;;;;;;0.00;0.00;;;20.20;99.90;;;;;;5069583;28;20270;-85
2021/07/11 06:05:52;;;;;;;0.10;0.07;;;20.60;99.90;;;;;;5056003;28;20278;-85
2021/07/11 06:08:19;;;;;;;0.00;0.00;;;22.00;99.90;;;;;;5069356;28;20262;-86
2021/07/11 06:10:45;;;;;;;0.35;0.30;;;21.40;99.90;;;;;;5054602;28;20032;-85
2021/07/11 06:13:11;;;;;;;0.28;0.28;;;21.70;99.90;;;;;;5062069;28;20518;-86
2021/07/11 06:15:37;;;;;;;0.30;0.10;;;23.00;99.90;;;;;;5053171;28;20087;-86
2021/07/11 06:18:03;;;;;;;0.03;0.03;;;23.00;99.90;;;;;;5056425;28;20274;-86
2021/07/11 06:20:28;;;;;;;0.25;0.00;;;23.00;99.90;;;;;;5057481;28;20516;-85
2021/07/11 06:22:54;;;;;;;0.30;0.30;;;22.80;99.90;;;;;;5055170;28;20104;-86
2021/07/11 06:25:20;;;;;;;0.00;0.00;;;22.40;99.90;;;;;;5057658;28;20037;-87
2021/07/11 06:27:46;;;;;;;0.00;0.00;;;22.50;99.90;;;;;;5051582;28;20052;-86
2021/07/11 06:30:15;;;;;;;0.10;0.10;;;23.80;99.90;;;;;;5060935;28;20072;-85
2021/07/11 06:32:42;;;;;;;0.00;0.00;;;23.70;99.90;;;;;;5061125;28;20056;-83
2021/07/11 06:35:11;;;;;;;0.32;0.20;;;23.80;99.90;;;;;;5057296;28;20072;-83
2021/07/11 06:37:37;;;;;;;0.10;0.10;;;23.50;99.90;;;;;;5063511;28;20394;-84
2021/07/11 06:40:05;;;;;;;1.02;0.20;;;23.90;99.90;;;;;;5049965;28;20033;-83
2021/07/11 06:42:31;;;;;;;0.20;0.20;;;24.70;99.90;;;;;;5050887;28;20063;-83
2021/07/11 06:44:57;;;;;;;0.00;0.00;;;24.30;99.90;;;;;;5060349;28;20085;-84
2021/07/11 06:47:23;;;;;;;0.28;0.08;;;25.00;99.90;;;;;;5053534;28;20040;-84
2021/07/11 06:49:49;;;;;;;0.00;0.00;;;25.60;98.80;;;;;;5062580;28;20040;-84
2021/07/11 06:52:14;;;;;;;0.00;0.00;;;25.40;98.40;;;;;;5055136;28;20513;-84
2021/07/11 06:54:40;;;;;;;0.00;0.00;;;26.20;98.00;;;;;;5056410;28;20033;-83
2021/07/11 06:57:06;;;;;;;0.00;0.00;;;25.20;96.90;;;;;;5046956;28;20026;-83
2021/07/11 06:59:32;;;;;;;0.00;0.00;;;26.50;97.10;;;;;;5049242;28;20147;-84
2021/07/11 07:01:57;;;;;;;0.00;0.00;;;25.60;97.40;;;;;;5049162;28;20143;-84
2021/07/11 07:04:23;;;;;;;0.15;0.15;;;26.90;95.60;;;;;;5049003;28;20036;-85
2021/07/11 07:06:51;;;;;;;0.00;0.00;;;26.50;99.90;;;;;;5049186;28;20035;-86
2021/07/11 07:09:17;;;;;;;0.00;0.00;;;26.30;96.00;;;;;;5051961;28;20036;-85
2021/07/11 07:11:45;;;;;;;0.10;0.10;;;26.80;94.20;;;;;;5052764;28;20040;-85
2021/07/11 07:14:11;;;;;;;0.00;0.00;;;25.80;96.50;;;;;;5052603;28;20114;-86
2021/07/11 07:16:37;;;;;;;0.22;0.10;;;27.50;94.10;;;;;;5066533;28;20021;-85
2021/07/11 07:19:09;;;;;;;0.00;0.00;;;27.30;93.40;;;;;;5072154;28;20033;-86
2021/07/11 07:21:36;;;;;;;0.30;0.30;;;26.70;94.00;;;;;;5056499;28;20103;-85
2021/07/11 07:24:01;;;;;;;;;;;28.20;92.30;;;;;;5071629;28;20028;-85
2021/07/11 07:26:27;;;;;;;0.10;0.10;;;28.00;91.80;;;;;;5071830;28;19927;-85
2021/07/11 07:28:54;;;;;;;;;;;27.20;92.50;;;;;;5058055;28;20156;-86
2021/07/11 07:31:20;;;;;;;0.32;0.10;;;26.10;93.10;;;;;;5068587;28;19952;-85
2021/07/11 07:33:45;;;;;;;;;;;26.90;92.50;;;;;;5063683;28;20043;-87
2021/07/11 07:36:11;;;;;;;0.10;0.10;;;27.10;92.50;;;;;;5054765;28;19909;-86
2021/07/11 07:38:37;;;;;;;;;;;28.80;85.80;;;;;;5071325;28;20047;-86
2021/07/11 07:41:03;;;;;;;0.20;0.10;;;29.50;86.10;;;;;;5072219;28;19995;-86
2021/07/11 07:43:28;;;;;;;;;;;29.70;82.50;;;;;;5072278;28;20092;-86
2021/07/11 07:45:54;;;;;;;0.20;0.20;;;30.70;81.20;;;;;;5071154;28;19952;-87
2021/07/11 07:48:20;;;;;;;;;;;31.80;72.40;;;;;;5062866;28;20562;-87
2021/07/11 07:50:46;;;;;;;0.00;0.00;;;33.10;67.00;;;;;;5061320;28;19912;-87
2021/07/11 07:53:12;;;;;;;0.00;0.00;;;30.80;68.00;;;;;;5065676;28;20052;-86
2021/07/11 07:55:40;;;;;;;0.03;0.03;;;31.50;63.70;;;;;;5065605;28;20047;-87
2021/07/11 07:58:15;;;;;;;0.00;0.00;;;33.80;59.40;;;;;;5062110;28;20039;-87
2021/07/11 08:00:42;;;;;;;0.20;0.10;;;33.60;60.90;;;;;;5053062;28;20021;-87
2021/07/11 08:03:08;;;;;;;0.20;0.20;;;32.40;63.20;;;;;;5062447;28;20025;-88
2021/07/11 08:05:34;;;;;;;0.00;0.00;;;33.10;58.10;;;;;;5064907;28;20024;-86
2021/07/11 08:08:00;;;;;;;0.10;0.10;;;34.20;59.10;;;;;;5057937;28;20129;-87
2021/07/11 08:10:26;;;;;;;1.25;0.30;;;32.50;59.20;;;;;;5048782;28;20048;-86
2021/07/11 08:12:53;;;;;;;1.65;0.10;;;32.70;57.90;;;;;;5051632;28;20051;-86
2021/07/11 08:15:19;;;;;;;0.10;0.10;;;33.10;58.50;;;;;;5057028;28;20513;-85
2021/07/11 08:17:47;;;;;;;0.00;0.00;;;34.50;54.10;;;;;;5056341;28;20020;-86
2021/07/11 08:20:16;;;;;;;0.00;0.00;;;34.70;50.10;;;;;;5052642;28;20502;-85
2021/07/11 08:22:43;;;;;;;0.00;0.00;;;32.20;58.30;;;;;;5055295;28;20091;-86
2021/07/11 08:25:10;;;;;;;0.35;0.35;;;31.80;59.40;;;;;;5057037;28;20101;-86
2021/07/11 08:27:38;;;;;;;0.35;0.10;;;33.20;55.70;;;;;;5051812;28;20029;-86
2021/07/11 08:30:06;;;;;;;0.10;0.10;;;34.20;45.70;;;;;;5060638;28;20052;-87
2021/07/11 08:32:33;;;;;;;0.00;0.00;;;36.30;44.20;;;;;;5060251;28;20033;-86
2021/07/11 08:34:59;;;;;;;0.00;0.00;;;35.00;42.30;;;;;;5058722;28;20646;-87
2021/07/11 08:37:25;;;;;;;0.00;0.00;;;32.80;52.00;;;;;;5052417;28;20021;-86
2021/07/11 08:39:52;;;;;;;0.00;0.00;;;33.20;47.50;;;;;;5052373;28;20025;-87
2021/07/11 08:42:20;;;;;;;0.00;0.00;;;33.10;51.70;;;;;;5061095;28;20493;-86
2021/07/11 08:44:46;;;;;;;0.00;0.00;;;34.80;43.90;;;;;;5053272;28;20549;-85
2021/07/11 08:47:13;;;;;;;0.20;0.03;;;33.20;50.00;;;;;;5053428;28;20037;-85
2021/07/11 08:49:38;;;;;;;0.00;0.00;;;33.40;43.70;;;;;;5051909;28;20865;-85
2021/07/11 08:52:06;;;;;;;0.38;0.38;;;33.70;36.80;;;;;;5061382;28;20119;-85
2021/07/11 08:54:32;;;;;;;0.00;0.00;;;35.10;35.40;;;;;;5057043;28;20119;-85
2021/07/11 08:57:09;;;;;;;0.00;0.00;;;37.80;29.90;;;;;;5061649;28;20049;-85
2021/07/11 08:59:36;;;;;;;0.00;0.00;;;33.80;29.20;;;;;;5054230;28;20021;-85
2021/07/11 09:02:04;;;;;;;0.00;0.00;;;32.80;38.60;;;;;;5053546;28;20048;-85
2021/07/11 09:04:44;;;;;;;0.03;0.03;;;37.10;28.90;;;;;;5052704;28;20036;-86
2021/07/11 09:07:21;;;;;;;0.10;0.10;;;36.40;26.00;;;;;;5058907;28;20035;-85
2021/07/11 09:09:55;;;;;;;0.25;0.20;;;35.00;28.90;;;;;;5056065;28;20025;-85
2021/07/11 09:12:21;;;;;;;0.17;0.10;;;35.30;27.40;;;;;;5054457;28;20036;-85
2021/07/11 09:14:48;;;;;;;0.10;0.03;;;37.70;25.50;;;;;;5056218;28;20647;-85
2021/07/11 09:17:15;;;;;;;0.20;0.10;;;38.90;19.40;;;;;;5052297;28;21625;-85
2021/07/11 09:19:49;;;;;;;0.20;0.10;;;40.20;20.40;;;;;;5054096;28;20477;-87
2021/07/11 09:22:20;;;;;;;0.20;0.20;;;36.80;28.80;;;;;;5054010;28;20108;-85
2021/07/11 09:24:55;;;;;;;0.00;0.00;;;37.00;26.10;;;;;;5057250;28;20031;-85
2021/07/11 09:27:27;;;;;;;0.10;0.10;;;38.00;21.50;;;;;;5049028;28;20045;-84
2021/07/11 09:30:01;;;;;;;0.15;0.10;;;36.50;20.20;;;;;;5059280;28;20040;-85
2021/07/11 09:32:32;;;;;;;0.00;0.00;;;39.70;16.60;;;;;;5049834;28;20032;-84
2021/07/11 09:35:27;;;;;;;0.10;0.10;;;38.20;20.60;;;;;;5058124;28;20522;-86
2021/07/11 09:38:00;;;;;;;0.00;0.00;;;38.80;12.00;;;;;;5051773;28;20476;-87
2021/07/11 09:40:27;;;;;;;0.30;0.30;;;39.40;17.10;;;;;;5055868;28;20648;-85
2021/07/11 09:42:55;;;;;;;0.00;0.00;;;38.30;15.50;;;;;;5050409;28;20545;-85
2021/07/11 09:45:26;;;;;;;2.70;1.55;;;37.40;13.00;;;;;;5054375;28;20028;-85
2021/07/11 09:48:06;;;;;;;0.13;0.13;;;37.50;16.10;;;;;;5065637;28;20025;-84
2021/07/11 09:50:42;;;;;;;0.35;0.35;;;36.70;17.10;;;;;;5060155;28;20036;-85
2021/07/11 09:53:13;;;;;;;14.82;4.85;;;36.70;21.20;;;;;;5051598;28;20021;-85
2021/07/11 09:55:39;;;;;;;0.98;0.20;;;35.90;22.40;;;;;;5053347;28;20025;-84
2021/07/11 09:58:06;;;;;;;;;;;36.10;17.80;;;;;;5051696;28;20041;-85
2021/07/11 10:00:38;;;;;;;0.10;0.10;;;38.30;15.10;;;;;;5050393;28;19908;-85
2021/07/11 10:03:08;;;;;;;0.73;0.32;;;36.30;16.00;;;;;;5057105;28;20016;-84
2021/07/11 10:05:35;;;;;;;0.30;0.20;;;39.40;13.60;;;;;;5051024;28;20021;-84
2021/07/11 10:08:01;;;;;;;0.00;0.00;;;39.10;10.90;;;;;;5053805;28;20017;-84
2021/07/11 10:10:30;;;;;;;0.30;0.30;;;39.20;11.90;;;;;;5055391;28;20052;-84
2021/07/11 10:12:58;;;;;;;0.00;0.00;;;38.50;9.20;;;;;;5052551;28;20048;-84
2021/07/11 10:15:26;;;;;;;0.05;0.05;;;38.00;13.50;;;;;;5051598;28;20393;-84
2021/07/11 10:18:20;;;;;;;0.03;0.03;;;36.10;16.20;;;;;;5054406;28;20013;-84
2021/07/11 10:20:49;;;;;;;0.08;0.08;;;36.10;17.90;;;;;;5055036;28;20036;-86
2021/07/11 10:23:29;;;;;;;0.03;0.03;;;34.30;21.90;;;;;;5047961;28;20020;-84
2021/07/11 10:26:00;;;;;;;0.08;0.08;;;37.10;16.80;;;;;;5050717;28;20720;-83
2021/07/11 10:28:30;;;;;;;0.17;0.00;;;35.30;20.20;;;;;;5052548;28;20017;-84
2021/07/11 10:30:57;;;;;;;0.00;0.00;;;36.50;15.20;;;;;;5050151;28;20025;-83
2021/07/11 10:33:24;;;;;;;0.20;0.13;;;37.90;9.50;;;;;;5049828;28;20025;-83
2021/07/11 10:35:59;;;;;;;0.30;0.30;;;38.30;10.90;;;;;;5067355;28;20024;-83
2021/07/11 10:38:34;;;;;;;0.15;0.15;;;37.70;10.90;;;;;;5052942;28;20051;-83
2021/07/11 10:41:10;;;;;;;0.70;0.52;;;36.90;12.70;;;;;;5049697;28;20121;-84
2021/07/11 10:43:36;;;;;;;3.05;2.15;;;34.10;14.70;;;;;;5047897;28;20481;-84
2021/07/11 10:46:01;;;;;;;1.02;0.43;;;35.40;15.60;;;;;;5063898;28;20036;-84
2021/07/11 10:48:28;;;;;;;0.75;0.22;;;34.40;20.30;;;;;;5052969;28;20382;-83
2021/07/11 10:50:55;;;;;;;0.08;0.08;;;37.50;11.00;;;;;;5048770;28;20089;-84
2021/07/11 10:54:29;;;;;;;0.40;0.40;;;37.90;2.00;;;;;;5064785;28;20470;-83
2021/07/11 10:57:02;;;;;;;0.40;0.40;;;35.30;15.60;;;;;;5063706;28;20029;-85
2021/07/11 10:59:35;;;;;;;0.20;0.20;;;35.50;13.60;;;;;;5064396;28;20016;-83
2021/07/11 11:02:17;;;;;;;0.35;0.28;;;36.10;10.20;;;;;;5065130;28;20025;-83
2021/07/11 11:04:44;;;;;;;0.20;0.20;;;38.60;9.90;;;;;;5065950;28;20135;-83
2021/07/11 11:07:14;;;;;;;0.85;0.63;;;38.40;7.80;;;;;;5065645;28;20032;-83
2021/07/11 11:09:43;;;;;;;6.55;2.30;;;37.30;13.90;;;;;;5064805;28;20025;-83
2021/07/11 11:12:20;;;;;;;1.20;0.70;;;38.20;9.30;;;;;;5065283;28;20029;-83
2021/07/11 11:15:13;;;;;;;3.28;2.33;;;40.30;5.90;;;;;;5066014;28;20074;-83
2021/07/11 11:17:39;;;;;;;0.30;0.30;;;39.90;3.50;;;;;;5064186;28;20039;-83
2021/07/11 11:20:16;;;;;;;3.45;0.95;;;36.80;7.40;;;;;;5065660;28;20028;-83
2021/07/11 11:22:53;;;;;;;0.13;0.13;;;34.20;11.90;;;;;;5065503;28;20098;-83
2021/07/11 11:25:23;;;;;;;0.00;0.00;;;36.00;9.50;;;;;;5065091;28;20060;-83
2021/07/11 11:27:55;;;;;;;0.73;0.50;;;36.30;13.70;;;;;;5065261;28;20487;-84
2021/07/11 11:30:24;;;;;;;0.08;0.08;;;35.60;16.00;;;;;;5065621;28;20100;-84
2021/07/11 11:32:53;;;;;;;0.10;0.10;;;34.30;14.50;;;;;;5065353;28;20107;-83
2021/07/11 11:35:28;;;;;;;0.20;0.15;;;33.20;19.90;;;;;;5033638;28;20026;-84
2021/07/11 11:37:56;;;;;;;0.05;0.05;;;27.40;25.00;;;;;;5039403;28;20036;-84
2021/07/11 11:40:23;;;;;;;0.15;0.15;;;25.40;31.80;;;;;;5043082;28;20035;-84
2021/07/11 11:42:55;;;;;;;0.00;0.00;;;25.80;31.40;;;;;;5025932;28;20076;-84
2021/07/11 11:45:26;;;;;;;0.13;0.13;;;26.00;30.00;;;;;;5036544;28;20029;-83
2021/07/11 11:48:04;;;;;;;0.47;0.47;;;26.30;32.00;;;;;;5038639;28;20026;-84
2021/07/11 11:50:32;;;;;;;0.35;0.35;;;26.10;31.80;;;;;;5033173;28;20529;-86
2021/07/11 11:53:06;;;;;;;0.20;0.20;;;25.70;35.70;;;;;;5033526;28;20053;-85
2021/07/11 11:55:33;;;;;;;0.10;0.10;;;26.60;34.30;;;;;;5032019;28;20029;-84
2021/07/11 11:58:06;;;;;;;0.10;0.10;;;26.30;32.70;;;;;;5032255;28;20033;-83
2021/07/11 12:00:33;;;;;;;0.30;0.22;;;26.60;33.60;;;;;;5038302;28;20837;-84
2021/07/11 12:03:05;;;;;;;0.30;0.22;;;26.70;32.20;;;;;;5036154;28;20029;-82
2021/07/11 12:05:33;;;;;;;0.10;0.10;;;26.20;33.70;;;;;;5019144;28;20063;-84
2021/07/11 12:08:00;;;;;;;0.10;0.10;;;26.50;35.50;;;;;;5021645;28;20041;-84
2021/07/11 12:10:27;;;;;;;0.28;0.28;;;26.50;33.40;;;;;;5019563;28;20464;-84
2021/07/11 12:12:55;;;;;;;0.10;0.10;;;26.80;33.80;;;;;;5032727;28;20116;-84
2021/07/11 12:15:36;;;;;;;0.20;0.20;;;26.90;33.10;;;;;;5027825;28;20033;-83
2021/07/11 12:18:04;;;;;;;0.32;0.32;;;26.70;33.00;;;;;;5020367;28;20057;-84
2021/07/11 12:20:30;;;;;;;0.10;0.10;;;26.80;46.10;;;;;;5022579;28;20462;-83
2021/07/11 12:22:56;;;;;;;1.15;0.22;;;26.40;33.70;;;;;;5023192;28;20057;-86
2021/07/11 12:25:28;;;;;;;0.45;0.45;;;26.20;35.80;;;;;;5028688;28;20524;-86
2021/07/11 12:28:01;;;;;;;0.00;0.00;;;26.70;35.90;;;;;;5005170;28;20034;-87
2021/07/11 12:30:34;;;;;;;0.08;0.08;;;26.90;34.40;;;;;;5020869;28;20033;-86
2021/07/11 12:32:59;;;;;;;0.75;0.10;;;26.50;34.80;;;;;;5023606;28;20818;-85
2021/07/11 12:35:26;;;;;;;0.20;0.20;;;26.00;35.10;;;;;;5031759;28;20021;-85
2021/07/11 12:37:55;;;;;;;;;;;25.90;34.80;;;;;;5020722;28;20033;-85
2021/07/11 12:40:34;;;;;;;0.10;0.10;;;25.90;36.90;;;;;;5020521;28;19948;-85
2021/07/11 12:43:20;;;;;;;0.10;0.10;;;25.80;35.80;;;;;;5023015;28;20049;-85
2021/07/11 12:46:02;;;;;;;0.10;0.10;;;25.70;36.30;;;;;;5015949;28;20021;-85
2021/07/11 12:48:45;;;;;;;0.17;0.17;;;25.60;49.70;;;;;;5024785;28;20029;-85
2021/07/11 12:51:13;;;;;;;0.90;0.47;;;25.80;36.50;;;;;;5027416;28;20507;-85
2021/07/11 12:53:40;;;;;;;0.00;0.00;;;25.50;37.00;;;;;;5019693;28;20038;-86
2021/07/11 12:56:05;;;;;;;0.65;0.52;;;25.50;37.70;;;;;;5016245;28;20057;-86
2021/07/11 12:58:42;;;;;;;0.00;0.00;;;25.90;36.80;;;;;;5022899;28;20493;-86
2021/07/11 13:01:09;;;;;;;1.35;0.20;;;25.90;36.40;;;;;;5021733;28;20555;-86